sensor_id;sensor_type;location;lat;lon;timestamp;pressure;altitude;pressure_sealevel;temperature;humidity
5053;BME280;2545;50.892;5.740;2024-01-15T00:00:14;56388.59;;;-142.21;90.17
5053;BME280;2545;50.892;5.740;2024-01-15T00:02:40;56406.22;;;-142.21;90.62
5053;BME280;2545;50.892;5.740;2024-01-15T00:05:05;56414.06;;;-142.21;90.54
5053;BME280;2545;50.892;5.740;2024-01-15T00:07:31;56376.81;;;-142.21;91.27
5053;BME280;2545;50.892;5.740;2024-01-15T00:09:56;56374.84;;;-142.21;91.20
5053;BME280;2545;50.892;5.740;2024-01-15T00:12:21;56398.38;;;-142.21;91.80
5053;BME280;2545;50.892;5.740;2024-01-15T00:14:47;56370.94;;;-142.21;91.86
5053;BME280;2545;50.892;5.740;2024-01-15T00:17:12;56339.56;;;-142.21;92.59
5053;BME280;2545;50.892;5.740;2024-01-15T00:19:38;56386.63;;;-142.21;93.29
5053;BME280;2545;50.892;5.740;2024-01-15T00:22:03;56412.13;;;-142.21;93.47
5053;BME280;2545;50.892;5.740;2024-01-15T00:24:29;56382.69;;;-142.21;93.92
5053;BME280;2545;50.892;5.740;2024-01-15T00:26:54;56398.38;;;-142.21;94.10
5053;BME280;2545;50.892;5.740;2024-01-15T00:29:22;56457.22;;;-142.21;94.47
5053;BME280;2545;50.892;5.740;2024-01-15T00:31:48;56394.47;;;-142.21;94.70
5053;BME280;2545;50.892;5.740;2024-01-15T00:34:13;56388.59;;;-142.21;94.76
5053;BME280;2545;50.892;5.740;2024-01-15T00:36:38;56382.69;;;-142.21;94.60
5053;BME280;2545;50.892;5.740;2024-01-15T00:39:04;56421.91;;;-142.21;94.88
5053;BME280;2545;50.892;5.740;2024-01-15T00:41:30;56396.44;;;-142.21;94.46
5053;BME280;2545;50.892;5.740;2024-01-15T00:43:56;56406.22;;;-142.21;94.73
5053;BME280;2545;50.892;5.740;2024-01-15T00:46:23;56386.63;;;-142.21;94.92
5053;BME280;2545;50.892;5.740;2024-01-15T00:48:49;56396.44;;;-142.21;95.39
5053;BME280;2545;50.892;5.740;2024-01-15T00:51:14;56365.06;;;-142.21;96.29
5053;BME280;2545;50.892;5.740;2024-01-15T00:53:40;56367.00;;;-142.21;97.57
5053;BME280;2545;50.892;5.740;2024-01-15T00:56:05;56408.19;;;-142.21;98.46
5053;BME280;2545;50.892;5.740;2024-01-15T00:58:30;56410.16;;;-142.21;99.40
5053;BME280;2545;50.892;5.740;2024-01-15T01:00:56;56419.97;;;-142.21;100.00
5053;BME280;2545;50.892;5.740;2024-01-15T01:03:21;56400.34;;;-142.21;100.00
5053;BME280;2545;50.892;5.740;2024-01-15T01:05:48;56404.28;;;-142.21;100.00
5053;BME280;2545;50.892;5.740;2024-01-15T01:08:16;56402.31;;;-142.21;100.00
5053;BME280;2545;50.892;5.740;2024-01-15T01:10:41;56386.63;;;-142.21;100.00
5053;BME280;2545;50.892;5.740;2024-01-15T01:13:11;56394.47;;;-142.21;100.00
5053;BME280;2545;50.892;5.740;2024-01-15T01:15:36;56365.06;;;-142.21;100.00
5053;BME280;2545;50.892;5.740;2024-01-15T01:18:04;56394.47;;;-142.21;100.00
5053;BME280;2545;50.892;5.740;2024-01-15T01:20:30;56376.81;;;-142.21;100.00
5053;BME280;2545;50.892;5.740;2024-01-15T01:22:55;56410.16;;;-142.21;100.00
5053;BME280;2545;50.892;5.740;2024-01-15T01:25:20;56441.53;;;-142.21;100.00
5053;BME280;2545;50.892;5.740;2024-01-15T01:27:45;56421.91;;;-142.21;100.00
5053;BME280;2545;50.892;5.740;2024-01-15T01:30:12;56382.69;;;-142.21;100.00
5053;BME280;2545;50.892;5.740;2024-01-15T01:32:38;56421.91;;;-142.21;100.00
5053;BME280;2545;50.892;5.740;2024-01-15T01:35:04;56398.38;;;-142.21;100.00
5053;BME280;2545;50.892;5.740;2024-01-15T01:37:30;56410.16;;;-142.21;100.00
5053;BME280;2545;50.892;5.740;2024-01-15T01:39:57;56374.84;;;-142.21;100.00
5053;BME280;2545;50.892;5.740;2024-01-15T01:42:22;56370.94;;;-142.21;100.00
5053;BME280;2545;50.892;5.740;2024-01-15T01:44:48;56392.50;;;-142.21;100.00
5053;BME280;2545;50.892;5.740;2024-01-15T01:47:14;56410.16;;;-142.21;100.00
5053;BME280;2545;50.892;5.740;2024-01-15T01:49:41;56386.63;;;-142.21;100.00
5053;BME280;2545;50.892;5.740;2024-01-15T01:52:07;56394.47;;;-142.21;100.00
5053;BME280;2545;50.892;5.740;2024-01-15T01:54:35;56363.09;;;-142.21;100.00
5053;BME280;2545;50.892;5.740;2024-01-15T01:57:02;56388.59;;;-142.21;100.00
5053;BME280;2545;50.892;5.740;2024-01-15T01:59:31;56349.38;;;-142.21;100.00
5053;BME280;2545;50.892;5.740;2024-01-15T02:02:00;56374.84;;;-142.21;100.00
5053;BME280;2545;50.892;5.740;2024-01-15T02:04:26;56404.28;;;-142.21;100.00
5053;BME280;2545;50.892;5.740;2024-01-15T02:06:52;56402.31;;;-142.21;100.00
5053;BME280;2545;50.892;5.740;2024-01-15T02:09:19;56394.47;;;-142.21;100.00
5053;BME280;2545;50.892;5.740;2024-01-15T02:11:47;56429.75;;;-142.21;100.00
5053;BME280;2545;50.892;5.740;2024-01-15T02:14:13;56363.09;;;-142.21;100.00
5053;BME280;2545;50.892;5.740;2024-01-15T02:16:39;56382.69;;;-142.21;100.00
5053;BME280;2545;50.892;5.740;2024-01-15T02:19:04;56386.63;;;-142.21;100.00
5053;BME280;2545;50.892;5.740;2024-01-15T02:21:31;56416.03;;;-142.21;100.00
5053;BME280;2545;50.892;5.740;2024-01-15T02:23:56;56380.75;;;-142.21;100.00
5053;BME280;2545;50.892;5.740;2024-01-15T02:26:22;56382.69;;;-142.21;100.00
5053;BME280;2545;50.892;5.740;2024-01-15T02:28:48;56402.31;;;-142.21;100.00
5053;BME280;2545;50.892;5.740;2024-01-15T02:31:14;56394.47;;;-142.21;100.00
5053;BME280;2545;50.892;5.740;2024-01-15T02:33:40;56400.34;;;-142.21;100.00
5053;BME280;2545;50.892;5.740;2024-01-15T02:36:07;56416.03;;;-142.21;100.00
5053;BME280;2545;50.892;5.740;2024-01-15T02:38:32;56404.28;;;-142.21;100.00
5053;BME280;2545;50.892;5.740;2024-01-15T02:40:58;56412.13;;;-142.21;100.00
5053;BME280;2545;50.892;5.740;2024-01-15T02:43:23;56429.75;;;-142.21;100.00
5053;BME280;2545;50.892;5.740;2024-01-15T02:45:49;56398.38;;;-142.21;100.00
5053;BME280;2545;50.892;5.740;2024-01-15T02:48:14;56394.47;;;-142.21;100.00
5053;BME280;2545;50.892;5.740;2024-01-15T02:50:39;56386.63;;;-142.21;100.00
5053;BME280;2545;50.892;5.740;2024-01-15T02:53:05;56425.84;;;-142.21;100.00
5053;BME280;2545;50.892;5.740;2024-01-15T02:55:30;56398.38;;;-142.21;100.00
5053;BME280;2545;50.892;5.740;2024-01-15T02:57:56;56386.63;;;-142.21;100.00
5053;BME280;2545;50.892;5.740;2024-01-15T03:00:22;56410.16;;;-142.21;100.00
5053;BME280;2545;50.892;5.740;2024-01-15T03:02:50;56394.47;;;-142.21;100.00
5053;BME280;2545;50.892;5.740;2024-01-15T03:05:15;56384.66;;;-142.21;100.00
5053;BME280;2545;50.892;5.740;2024-01-15T03:07:41;56380.75;;;-142.21;100.00
5053;BME280;2545;50.892;5.740;2024-01-15T03:10:07;56402.31;;;-142.21;100.00
5053;BME280;2545;50.892;5.740;2024-01-15T03:12:32;56425.84;;;-142.21;100.00
5053;BME280;2545;50.892;5.740;2024-01-15T03:14:58;56410.16;;;-142.21;100.00
5053;BME280;2545;50.892;5.740;2024-01-15T03:17:23;56382.69;;;-142.21;100.00
5053;BME280;2545;50.892;5.740;2024-01-15T03:19:48;56404.28;;;-142.21;100.00
5053;BME280;2545;50.892;5.740;2024-01-15T03:22:17;56359.16;;;-142.21;100.00
5053;BME280;2545;50.892;5.740;2024-01-15T03:24:43;56412.13;;;-142.21;100.00
5053;BME280;2545;50.892;5.740;2024-01-15T03:27:09;56406.22;;;-142.21;100.00
5053;BME280;2545;50.892;5.740;2024-01-15T03:29:34;56429.75;;;-142.21;100.00
5053;BME280;2545;50.892;5.740;2024-01-15T03:31:59;56380.75;;;-142.21;100.00
5053;BME280;2545;50.892;5.740;2024-01-15T03:34:25;56404.28;;;-142.21;100.00
5053;BME280;2545;50.892;5.740;2024-01-15T03:36:50;56390.53;;;-142.21;100.00
5053;BME280;2545;50.892;5.740;2024-01-15T03:39:15;56412.13;;;-142.21;100.00
5053;BME280;2545;50.892;5.740;2024-01-15T03:41:42;56416.03;;;-142.21;100.00
5053;BME280;2545;50.892;5.740;2024-01-15T03:44:07;56406.22;;;-142.21;100.00
5053;BME280;2545;50.892;5.740;2024-01-15T03:46:33;56384.66;;;-142.21;100.00
5053;BME280;2545;50.892;5.740;2024-01-15T03:48:58;56374.84;;;-142.21;100.00
5053;BME280;2545;50.892;5.740;2024-01-15T03:51:24;56419.97;;;-142.21;100.00
5053;BME280;2545;50.892;5.740;2024-01-15T03:53:49;56390.53;;;-142.21;100.00
5053;BME280;2545;50.892;5.740;2024-01-15T03:56:15;56412.13;;;-142.21;100.00
5053;BME280;2545;50.892;5.740;2024-01-15T03:58:40;56398.38;;;-142.21;100.00
5053;BME280;2545;50.892;5.740;2024-01-15T04:01:13;56390.53;;;-142.21;100.00
5053;BME280;2545;50.892;5.740;2024-01-15T04:03:38;56394.47;;;-142.21;100.00
5053;BME280;2545;50.892;5.740;2024-01-15T04:06:04;56394.47;;;-142.21;100.00
5053;BME280;2545;50.892;5.740;2024-01-15T04:08:29;56392.50;;;-142.21;100.00
5053;BME280;2545;50.892;5.740;2024-01-15T04:10:55;56400.34;;;-142.21;100.00
5053;BME280;2545;50.892;5.740;2024-01-15T04:13:20;56418.00;;;-142.21;100.00
5053;BME280;2545;50.892;5.740;2024-01-15T04:15:46;56402.31;;;-142.21;100.00
5053;BME280;2545;50.892;5.740;2024-01-15T04:18:11;56390.53;;;-142.21;100.00
5053;BME280;2545;50.892;5.740;2024-01-15T04:20:36;56433.69;;;-142.21;100.00
5053;BME280;2545;50.892;5.740;2024-01-15T04:23:02;56394.47;;;-142.21;100.00
5053;BME280;2545;50.892;5.740;2024-01-15T04:25:27;56410.16;;;-142.21;100.00
5053;BME280;2545;50.892;5.740;2024-01-15T04:27:52;56378.78;;;-142.21;100.00
5053;BME280;2545;50.892;5.740;2024-01-15T04:30:18;56398.38;;;-142.21;100.00
5053;BME280;2545;50.892;5.740;2024-01-15T04:32:43;56412.13;;;-142.21;100.00
5053;BME280;2545;50.892;5.740;2024-01-15T04:35:08;56418.00;;;-142.21;100.00
5053;BME280;2545;50.892;5.740;2024-01-15T04:37:34;56427.81;;;-142.21;100.00
5053;BME280;2545;50.892;5.740;2024-01-15T04:40:00;56374.84;;;-142.21;100.00
5053;BME280;2545;50.892;5.740;2024-01-15T04:42:25;56412.13;;;-142.21;100.00
5053;BME280;2545;50.892;5.740;2024-01-15T04:44:51;56378.78;;;-142.21;100.00
5053;BME280;2545;50.892;5.740;2024-01-15T04:47:17;56396.44;;;-142.21;100.00
5053;BME280;2545;50.892;5.740;2024-01-15T04:49:42;56406.22;;;-142.21;100.00
5053;BME280;2545;50.892;5.740;2024-01-15T04:52:07;56396.44;;;-142.21;100.00
5053;BME280;2545;50.892;5.740;2024-01-15T04:54:35;56400.34;;;-142.21;100.00
5053;BME280;2545;50.892;5.740;2024-01-15T04:57:00;56416.03;;;-142.21;100.00
5053;BME280;2545;50.892;5.740;2024-01-15T04:59:25;56394.47;;;-142.21;100.00
5053;BME280;2545;50.892;5.740;2024-01-15T05:01:51;56425.84;;;-142.21;100.00
5053;BME280;2545;50.892;5.740;2024-01-15T05:04:16;56421.91;;;-142.21;100.00
5053;BME280;2545;50.892;5.740;2024-01-15T05:06:41;56394.47;;;-142.21;100.00
5053;BME280;2545;50.892;5.740;2024-01-15T05:09:07;56437.59;;;-142.21;100.00
5053;BME280;2545;50.892;5.740;2024-01-15T05:11:32;56414.06;;;-142.21;100.00
5053;BME280;2545;50.892;5.740;2024-01-15T05:13:57;56396.44;;;-142.21;100.00
5053;BME280;2545;50.892;5.740;2024-01-15T05:16:23;56404.28;;;-142.21;100.00
5053;BME280;2545;50.892;5.740;2024-01-15T05:18:48;56376.81;;;-142.21;100.00
5053;BME280;2545;50.892;5.740;2024-01-15T05:21:13;56410.16;;;-142.21;100.00
5053;BME280;2545;50.892;5.740;2024-01-15T05:23:39;56392.50;;;-142.21;100.00
5053;BME280;2545;50.892;5.740;2024-01-15T05:26:04;56425.84;;;-142.21;100.00
5053;BME280;2545;50.892;5.740;2024-01-15T05:28:30;56414.06;;;-142.21;100.00
5053;BME280;2545;50.892;5.740;2024-01-15T05:30:56;56402.31;;;-142.21;100.00
5053;BME280;2545;50.892;5.740;2024-01-15T05:33:22;56372.91;;;-142.21;100.00
5053;BME280;2545;50.892;5.740;2024-01-15T05:35:48;56416.03;;;-142.21;100.00
5053;BME280;2545;50.892;5.740;2024-01-15T05:38:15;56414.06;;;-142.21;100.00
5053;BME280;2545;50.892;5.740;2024-01-15T05:40:40;56372.91;;;-142.21;100.00
5053;BME280;2545;50.892;5.740;2024-01-15T05:43:05;56396.44;;;-142.21;100.00
5053;BME280;2545;50.892;5.740;2024-01-15T05:45:31;56425.84;;;-142.21;100.00
5053;BME280;2545;50.892;5.740;2024-01-15T05:47:56;56367.00;;;-142.21;100.00
5053;BME280;2545;50.892;5.740;2024-01-15T05:50:22;56392.50;;;-142.21;100.00
5053;BME280;2545;50.892;5.740;2024-01-15T05:52:47;56406.22;;;-142.21;100.00
5053;BME280;2545;50.892;5.740;2024-01-15T05:55:13;56382.69;;;-142.21;100.00
5053;BME280;2545;50.892;5.740;2024-01-15T05:57:38;56410.16;;;-142.21;100.00
5053;BME280;2545;50.892;5.740;2024-01-15T06:00:04;56425.84;;;-142.21;100.00
5053;BME280;2545;50.892;5.740;2024-01-15T06:02:31;56406.22;;;-142.21;100.00
5053;BME280;2545;50.892;5.740;2024-01-15T06:04:56;56406.22;;;-142.21;100.00
5053;BME280;2545;50.892;5.740;2024-01-15T06:07:22;56386.63;;;-142.21;100.00
5053;BME280;2545;50.892;5.740;2024-01-15T06:09:48;56425.84;;;-142.21;100.00
5053;BME280;2545;50.892;5.740;2024-01-15T06:12:13;56376.81;;;-142.21;100.00
5053;BME280;2545;50.892;5.740;2024-01-15T06:14:38;56425.84;;;-142.21;100.00
5053;BME280;2545;50.892;5.740;2024-01-15T06:17:04;56437.59;;;-142.21;100.00
5053;BME280;2545;50.892;5.740;2024-01-15T06:19:29;56380.75;;;-142.21;100.00
5053;BME280;2545;50.892;5.740;2024-01-15T06:21:54;56378.78;;;-142.21;100.00
5053;BME280;2545;50.892;5.740;2024-01-15T06:24:19;56418.00;;;-142.21;100.00
5053;BME280;2545;50.892;5.740;2024-01-15T06:26:46;56404.28;;;-142.21;100.00
5053;BME280;2545;50.892;5.740;2024-01-15T06:29:12;56388.59;;;-142.21;100.00
5053;BME280;2545;50.892;5.740;2024-01-15T06:31:37;56457.22;;;-142.21;100.00
5053;BME280;2545;50.892;5.740;2024-01-15T06:34:02;56365.06;;;-142.21;100.00
5053;BME280;2545;50.892;5.740;2024-01-15T06:36:27;56374.84;;;-142.21;100.00
5053;BME280;2545;50.892;5.740;2024-01-15T06:38:53;56372.91;;;-142.21;100.00
5053;BME280;2545;50.892;5.740;2024-01-15T06:41:18;56425.84;;;-142.21;100.00
5053;BME280;2545;50.892;5.740;2024-01-15T06:43:43;56374.84;;;-142.21;100.00
5053;BME280;2545;50.892;5.740;2024-01-15T06:46:08;56370.94;;;-142.21;100.00
5053;BME280;2545;50.892;5.740;2024-01-15T06:48:34;56418.00;;;-142.21;100.00
5053;BME280;2545;50.892;5.740;2024-01-15T06:50:59;56396.44;;;-142.21;100.00
5053;BME280;2545;50.892;5.740;2024-01-15T06:53:24;56416.03;;;-142.21;100.00
5053;BME280;2545;50.892;5.740;2024-01-15T06:55:50;56374.84;;;-142.21;100.00
5053;BME280;2545;50.892;5.740;2024-01-15T06:58:16;56386.63;;;-142.21;100.00
5053;BME280;2545;50.892;5.740;2024-01-15T07:00:41;56410.16;;;-142.21;100.00
5053;BME280;2545;50.892;5.740;2024-01-15T07:03:07;56374.84;;;-142.21;100.00
5053;BME280;2545;50.892;5.740;2024-01-15T07:05:32;56410.16;;;-142.21;100.00
5053;BME280;2545;50.892;5.740;2024-01-15T07:07:58;56423.88;;;-142.21;100.00
5053;BME280;2545;50.892;5.740;2024-01-15T07:10:23;56408.19;;;-142.21;100.00
5053;BME280;2545;50.892;5.740;2024-01-15T07:12:48;56406.22;;;-142.21;100.00
5053;BME280;2545;50.892;5.740;2024-01-15T07:15:14;56367.00;;;-142.21;100.00
5053;BME280;2545;50.892;5.740;2024-01-15T07:17:40;56408.19;;;-142.21;100.00
5053;BME280;2545;50.892;5.740;2024-01-15T07:20:06;56394.47;;;-142.21;100.00
5053;BME280;2545;50.892;5.740;2024-01-15T07:22:33;56431.72;;;-142.21;100.00
5053;BME280;2545;50.892;5.740;2024-01-15T07:24:58;56396.44;;;-142.21;100.00
5053;BME280;2545;50.892;5.740;2024-01-15T07:27:24;56437.59;;;-142.21;100.00
5053;BME280;2545;50.892;5.740;2024-01-15T07:29:49;56402.31;;;-142.21;100.00
5053;BME280;2545;50.892;5.740;2024-01-15T07:32:15;56427.81;;;-142.21;100.00
5053;BME280;2545;50.892;5.740;2024-01-15T07:34:40;56398.38;;;-142.21;100.00
5053;BME280;2545;50.892;5.740;2024-01-15T07:37:05;56388.59;;;-142.21;100.00
5053;BME280;2545;50.892;5.740;2024-01-15T07:39:31;56398.38;;;-142.21;100.00
5053;BME280;2545;50.892;5.740;2024-01-15T07:41:56;56410.16;;;-142.21;100.00
5053;BME280;2545;50.892;5.740;2024-01-15T07:44:22;56414.06;;;-142.21;100.00
5053;BME280;2545;50.892;5.740;2024-01-15T07:46:47;56386.63;;;-142.21;100.00
5053;BME280;2545;50.892;5.740;2024-01-15T07:49:13;56384.66;;;-142.21;100.00
5053;BME280;2545;50.892;5.740;2024-01-15T07:51:39;56396.44;;;-142.21;100.00
5053;BME280;2545;50.892;5.740;2024-01-15T07:54:06;56414.06;;;-142.21;100.00
5053;BME280;2545;50.892;5.740;2024-01-15T07:56:31;56423.88;;;-142.21;100.00
5053;BME280;2545;50.892;5.740;2024-01-15T07:58:57;56374.84;;;-142.21;100.00
5053;BME280;2545;50.892;5.740;2024-01-15T08:01:22;56349.38;;;-142.21;100.00
5053;BME280;2545;50.892;5.740;2024-01-15T08:03:47;56355.25;;;-142.21;100.00
5053;BME280;2545;50.892;5.740;2024-01-15T08:06:13;56400.34;;;-142.21;100.00
5053;BME280;2545;50.892;5.740;2024-01-15T08:08:38;56390.53;;;-142.21;100.00
5053;BME280;2545;50.892;5.740;2024-01-15T08:11:04;56408.19;;;-142.21;100.00
5053;BME280;2545;50.892;5.740;2024-01-15T08:13:30;56423.88;;;-142.21;100.00
5053;BME280;2545;50.892;5.740;2024-01-15T08:15:55;56435.66;;;-142.21;100.00
5053;BME280;2545;50.892;5.740;2024-01-15T08:18:21;56406.22;;;-142.21;100.00
5053;BME280;2545;50.892;5.740;2024-01-15T08:20:46;56425.84;;;-142.21;100.00
5053;BME280;2545;50.892;5.740;2024-01-15T08:23:12;56412.13;;;-142.21;100.00
5053;BME280;2545;50.892;5.740;2024-01-15T08:25:37;56453.28;;;-142.21;100.00
5053;BME280;2545;50.892;5.740;2024-01-15T08:28:04;56402.31;;;-142.21;100.00
5053;BME280;2545;50.892;5.740;2024-01-15T08:30:29;56374.84;;;-142.21;100.00
5053;BME280;2545;50.892;5.740;2024-01-15T08:32:55;56445.44;;;-142.21;100.00
5053;BME280;2545;50.892;5.740;2024-01-15T08:35:23;56414.06;;;-142.21;100.00
5053;BME280;2545;50.892;5.740;2024-01-15T08:37:50;56425.84;;;-142.21;100.00
5053;BME280;2545;50.892;5.740;2024-01-15T08:40:16;56400.34;;;-142.21;100.00
5053;BME280;2545;50.892;5.740;2024-01-15T08:42:42;56414.06;;;-142.21;100.00
5053;BME280;2545;50.892;5.740;2024-01-15T08:45:08;56419.97;;;-142.21;100.00
5053;BME280;2545;50.892;5.740;2024-01-15T08:47:34;56386.63;;;-142.21;100.00
5053;BME280;2545;50.892;5.740;2024-01-15T08:50:01;56427.81;;;-142.21;100.00
5053;BME280;2545;50.892;5.740;2024-01-15T08:52:26;56410.16;;;-142.21;100.00
5053;BME280;2545;50.892;5.740;2024-01-15T08:54:52;56429.75;;;-142.21;100.00
5053;BME280;2545;50.892;5.740;2024-01-15T08:57:17;56431.72;;;-142.21;100.00
5053;BME280;2545;50.892;5.740;2024-01-15T08:59:42;56404.28;;;-142.21;100.00
5053;BME280;2545;50.892;5.740;2024-01-15T09:02:08;56419.97;;;-142.21;100.00
5053;BME280;2545;50.892;5.740;2024-01-15T09:04:33;56429.75;;;-142.21;100.00
5053;BME280;2545;50.892;5.740;2024-01-15T09:06:59;56394.47;;;-142.21;100.00
5053;BME280;2545;50.892;5.740;2024-01-15T09:09:24;56425.84;;;-142.21;100.00
5053;BME280;2545;50.892;5.740;2024-01-15T09:11:50;56425.84;;;-142.21;100.00
5053;BME280;2545;50.892;5.740;2024-01-15T09:14:16;56370.94;;;-142.21;100.00
5053;BME280;2545;50.892;5.740;2024-01-15T09:16:41;56410.16;;;-142.21;100.00
5053;BME280;2545;50.892;5.740;2024-01-15T09:19:06;56394.47;;;-142.21;100.00
5053;BME280;2545;50.892;5.740;2024-01-15T09:21:32;56418.00;;;-142.21;100.00
5053;BME280;2545;50.892;5.740;2024-01-15T09:23:58;56400.34;;;-142.21;100.00
5053;BME280;2545;50.892;5.740;2024-01-15T09:26:23;56414.06;;;-142.21;100.00
5053;BME280;2545;50.892;5.740;2024-01-15T09:28:49;56418.00;;;-142.21;100.00
5053;BME280;2545;50.892;5.740;2024-01-15T09:31:14;56406.22;;;-142.21;100.00
5053;BME280;2545;50.892;5.740;2024-01-15T09:33:39;56392.50;;;-142.21;100.00
5053;BME280;2545;50.892;5.740;2024-01-15T09:36:05;56421.91;;;-142.21;100.00
5053;BME280;2545;50.892;5.740;2024-01-15T09:38:31;56410.16;;;-142.21;100.00
5053;BME280;2545;50.892;5.740;2024-01-15T09:40:57;56394.47;;;-142.21;100.00
5053;BME280;2545;50.892;5.740;2024-01-15T09:43:22;56408.19;;;-142.21;100.00
5053;BME280;2545;50.892;5.740;2024-01-15T09:45:49;56402.31;;;-142.21;100.00
5053;BME280;2545;50.892;5.740;2024-01-15T09:48:14;56421.91;;;-142.21;100.00
5053;BME280;2545;50.892;5.740;2024-01-15T09:50:40;56386.63;;;-142.21;100.00
5053;BME280;2545;50.892;5.740;2024-01-15T09:53:05;56392.50;;;-142.21;100.00
5053;BME280;2545;50.892;5.740;2024-01-15T09:55:31;56406.22;;;-142.21;100.00
5053;BME280;2545;50.892;5.740;2024-01-15T09:58:00;56414.06;;;-142.21;100.00
5053;BME280;2545;50.892;5.740;2024-01-15T10:00:26;56431.72;;;-142.21;100.00
5053;BME280;2545;50.892;5.740;2024-01-15T10:02:52;56398.38;;;-142.21;100.00
5053;BME280;2545;50.892;5.740;2024-01-15T10:05:17;56388.59;;;-142.21;100.00
5053;BME280;2545;50.892;5.740;2024-01-15T10:07:43;56421.91;;;-142.21;100.00
5053;BME280;2545;50.892;5.740;2024-01-15T10:10:10;56410.16;;;-142.21;100.00
5053;BME280;2545;50.892;5.740;2024-01-15T10:12:36;56423.88;;;-142.21;100.00
5053;BME280;2545;50.892;5.740;2024-01-15T10:15:03;56421.91;;;-142.21;100.00
5053;BME280;2545;50.892;5.740;2024-01-15T10:17:31;56394.47;;;-142.21;100.00
5053;BME280;2545;50.892;5.740;2024-01-15T10:19:57;56418.00;;;-142.21;100.00
5053;BME280;2545;50.892;5.740;2024-01-15T10:22:22;56408.19;;;-142.21;100.00
5053;BME280;2545;50.892;5.740;2024-01-15T10:24:48;56427.81;;;-142.21;100.00
5053;BME280;2545;50.892;5.740;2024-01-15T10:27:14;56410.16;;;-142.21;100.00
5053;BME280;2545;50.892;5.740;2024-01-15T10:29:41;56410.16;;;-142.21;100.00
5053;BME280;2545;50.892;5.740;2024-01-15T10:32:07;56418.00;;;-142.21;100.00
5053;BME280;2545;50.892;5.740;2024-01-15T10:34:40;56400.34;;;-142.21;100.00
5053;BME280;2545;50.892;5.740;2024-01-15T10:37:09;56357.22;;;-142.21;100.00
5053;BME280;2545;50.892;5.740;2024-01-15T10:39:35;56404.28;;;-142.21;100.00
5053;BME280;2545;50.892;5.740;2024-01-15T10:42:02;56400.34;;;-142.21;100.00
5053;BME280;2545;50.892;5.740;2024-01-15T10:44:28;56386.63;;;-142.21;100.00
5053;BME280;2545;50.892;5.740;2024-01-15T10:46:55;56386.63;;;-142.21;100.00
5053;BME280;2545;50.892;5.740;2024-01-15T10:49:23;56398.38;;;-142.21;99.86
5053;BME280;2545;50.892;5.740;2024-01-15T10:51:52;56431.72;;;-142.21;99.64
5053;BME280;2545;50.892;5.740;2024-01-15T10:54:19;56378.78;;;-142.21;99.37
5053;BME280;2545;50.892;5.740;2024-01-15T10:56:45;56414.06;;;-142.21;99.56
5053;BME280;2545;50.892;5.740;2024-01-15T10:59:13;56421.91;;;-142.21;99.63
5053;BME280;2545;50.892;5.740;2024-01-15T11:01:38;56394.47;;;-142.21;98.05
5053;BME280;2545;50.892;5.740;2024-01-15T11:04:04;56423.88;;;-142.21;97.07
5053;BME280;2545;50.892;5.740;2024-01-15T11:06:42;56437.59;;;-142.21;97.91
5053;BME280;2545;50.892;5.740;2024-01-15T11:09:08;56406.22;;;-142.21;97.92
5053;BME280;2545;50.892;5.740;2024-01-15T11:11:35;56388.59;;;-142.21;96.57
5053;BME280;2545;50.892;5.740;2024-01-15T11:14:02;56414.06;;;-142.21;96.60
5053;BME280;2545;50.892;5.740;2024-01-15T11:16:54;56419.97;;;-142.21;95.16
5053;BME280;2545;50.892;5.740;2024-01-15T11:19:19;56410.16;;;-142.21;93.28
5053;BME280;2545;50.892;5.740;2024-01-15T11:21:45;56416.03;;;-142.21;90.67
5053;BME280;2545;50.892;5.740;2024-01-15T11:24:10;56372.91;;;-142.21;85.35
5053;BME280;2545;50.892;5.740;2024-01-15T11:26:43;56421.91;;;-142.21;81.56
5053;BME280;2545;50.892;5.740;2024-01-15T11:34:50;56378.78;;;-142.21;76.33
5053;BME280;2545;50.892;5.740;2024-01-15T11:37:16;56423.88;;;-142.21;75.88
5053;BME280;2545;50.892;5.740;2024-01-15T11:39:45;56378.78;;;-142.21;75.30
5053;BME280;2545;50.892;5.740;2024-01-15T11:42:12;56388.59;;;-142.21;76.23
5053;BME280;2545;50.892;5.740;2024-01-15T11:44:38;56419.97;;;-142.21;77.43
5053;BME280;2545;50.892;5.740;2024-01-15T11:47:09;56384.66;;;-142.21;78.77
5053;BME280;2545;50.892;5.740;2024-01-15T11:50:02;56412.13;;;-142.21;80.85
5053;BME280;2545;50.892;5.740;2024-01-15T11:52:38;56370.94;;;-142.21;81.48
5053;BME280;2545;50.892;5.740;2024-01-15T11:55:21;56374.84;;;-142.21;81.53
5053;BME280;2545;50.892;5.740;2024-01-15T11:57:50;56416.03;;;-142.21;82.91
5053;BME280;2545;50.892;5.740;2024-01-15T12:00:16;56374.84;;;-142.21;83.34
5053;BME280;2545;50.892;5.740;2024-01-15T12:02:43;56363.09;;;-142.21;83.77
5053;BME280;2545;50.892;5.740;2024-01-15T12:05:10;56414.06;;;-142.21;85.01
5053;BME280;2545;50.892;5.740;2024-01-15T12:07:38;56421.91;;;-142.21;87.36
5053;BME280;2545;50.892;5.740;2024-01-15T12:10:08;56421.91;;;-142.21;89.50
5053;BME280;2545;50.892;5.740;2024-01-15T12:15:26;56378.78;;;-142.21;91.54
5053;BME280;2545;50.892;5.740;2024-01-15T12:17:51;56384.66;;;-142.21;92.31
5053;BME280;2545;50.892;5.740;2024-01-15T12:20:18;56384.66;;;-142.21;93.95
5053;BME280;2545;50.892;5.740;2024-01-15T12:22:43;56421.91;;;-142.21;94.19
5053;BME280;2545;50.892;5.740;2024-01-15T12:25:09;56357.22;;;-142.21;95.14
5053;BME280;2545;50.892;5.740;2024-01-15T12:27:35;56441.53;;;-142.21;96.42
5053;BME280;2545;50.892;5.740;2024-01-15T12:30:00;56380.75;;;-142.21;97.87
5053;BME280;2545;50.892;5.740;2024-01-15T12:32:25;56414.06;;;-142.21;100.00
5053;BME280;2545;50.892;5.740;2024-01-15T12:34:51;56382.69;;;-142.21;100.00
5053;BME280;2545;50.892;5.740;2024-01-15T12:37:20;56374.84;;;-142.21;100.00
5053;BME280;2545;50.892;5.740;2024-01-15T12:39:46;56412.13;;;-142.21;100.00
5053;BME280;2545;50.892;5.740;2024-01-15T12:42:11;56412.13;;;-142.21;100.00
5053;BME280;2545;50.892;5.740;2024-01-15T12:44:37;56418.00;;;-142.21;100.00
5053;BME280;2545;50.892;5.740;2024-01-15T12:47:05;56386.63;;;-142.21;100.00
5053;BME280;2545;50.892;5.740;2024-01-15T12:49:30;56384.66;;;-142.21;100.00
5053;BME280;2545;50.892;5.740;2024-01-15T12:51:59;56390.53;;;-142.21;100.00
5053;BME280;2545;50.892;5.740;2024-01-15T12:54:25;56431.72;;;-142.21;100.00